Johns Creek, Kentucky
Current Conditions -  °F | °C
As of 6:35 PM on Monday 22 Dec 2014 (Local Time) from KSJS Reporting Station
Overcast Overcast  
Wind Chill: 51°   Ceiling: 11000
Heat Index: 51°   Visibility: 10mi
Dew Point: 40°   Wind: 5mph
Humidity: 67%   Direction: 80°E
Pressure: 29.83"   Gusts: NA
Location:  37.7034°N, 82.6848°W
Report Text: KSJS 222335Z AUTO 08004KT 10SM SCT080 OVC110 11/05 A2983 RMK AO2 T01050045
Loading
Personal Weather Stations






























Interactive Weather Map New forecast layout! Learn more

10-Day Weather Forecast

Advertisements
Track Severe Weather on mobile